sensor_id;sensor_type;location;lat;lon;timestamp;P1;durP1;ratioP1;P2;durP2;ratioP2
31336;SDS011;22846;42.654;23.314;2022-08-01T00:00:35;3.20;;;2.20;;
31336;SDS011;22846;42.654;23.314;2022-08-01T00:03:01;3.92;;;2.22;;
31336;SDS011;22846;42.654;23.314;2022-08-01T00:05:26;2.97;;;2.30;;
31336;SDS011;22846;42.654;23.314;2022-08-01T00:07:52;5.03;;;2.10;;
31336;SDS011;22846;42.654;23.314;2022-08-01T00:10:17;2.90;;;2.15;;
31336;SDS011;22846;42.654;23.314;2022-08-01T00:12:43;2.63;;;1.80;;
31336;SDS011;22846;42.654;23.314;2022-08-01T00:15:10;3.30;;;2.03;;
31336;SDS011;22846;42.654;23.314;2022-08-01T00:17:37;4.03;;;2.20;;
31336;SDS011;22846;42.654;23.314;2022-08-01T00:20:04;4.32;;;2.25;;
31336;SDS011;22846;42.654;23.314;2022-08-01T00:22:32;3.05;;;2.10;;
31336;SDS011;22846;42.654;23.314;2022-08-01T00:24:58;3.88;;;1.98;;
31336;SDS011;22846;42.654;23.314;2022-08-01T00:27:23;3.88;;;1.65;;
31336;SDS011;22846;42.654;23.314;2022-08-01T00:29:49;3.97;;;1.92;;
31336;SDS011;22846;42.654;23.314;2022-08-01T00:32:14;2.83;;;1.85;;
31336;SDS011;22846;42.654;23.314;2022-08-01T00:34:40;2.65;;;2.03;;
31336;SDS011;22846;42.654;23.314;2022-08-01T00:37:05;6.72;;;2.20;;
31336;SDS011;22846;42.654;23.314;2022-08-01T00:39:30;2.97;;;2.00;;
31336;SDS011;22846;42.654;23.314;2022-08-01T00:41:58;3.65;;;1.77;;
31336;SDS011;22846;42.654;23.314;2022-08-01T00:44:24;5.57;;;1.77;;
31336;SDS011;22846;42.654;23.314;2022-08-01T00:46:49;3.55;;;1.88;;
31336;SDS011;22846;42.654;23.314;2022-08-01T00:49:14;3.72;;;1.60;;
31336;SDS011;22846;42.654;23.314;2022-08-01T00:51:40;4.95;;;1.92;;
31336;SDS011;22846;42.654;23.314;2022-08-01T00:54:05;2.20;;;1.90;;
31336;SDS011;22846;42.654;23.314;2022-08-01T00:56:31;2.00;;;1.80;;
31336;SDS011;22846;42.654;23.314;2022-08-01T00:58:56;5.75;;;1.90;;
31336;SDS011;22846;42.654;23.314;2022-08-01T01:01:22;4.00;;;1.90;;
31336;SDS011;22846;42.654;23.314;2022-08-01T01:03:48;4.20;;;2.25;;
31336;SDS011;22846;42.654;23.314;2022-08-01T01:06:36;4.15;;;2.10;;
31336;SDS011;22846;42.654;23.314;2022-08-01T01:12:00;3.70;;;1.95;;
31336;SDS011;22846;42.654;23.314;2022-08-01T01:14:33;4.60;;;2.55;;
31336;SDS011;22846;42.654;23.314;2022-08-01T01:17:11;3.55;;;2.05;;
31336;SDS011;22846;42.654;23.314;2022-08-01T01:19:48;2.83;;;2.10;;
31336;SDS011;22846;42.654;23.314;2022-08-01T01:22:22;3.38;;;2.40;;
31336;SDS011;22846;42.654;23.314;2022-08-01T01:25:07;2.42;;;2.00;;
31336;SDS011;22846;42.654;23.314;2022-08-01T01:27:50;4.13;;;2.20;;
31336;SDS011;22846;42.654;23.314;2022-08-01T01:30:23;3.28;;;2.08;;
31336;SDS011;22846;42.654;23.314;2022-08-01T01:32:50;4.43;;;2.08;;
31336;SDS011;22846;42.654;23.314;2022-08-01T01:35:21;3.85;;;2.03;;
31336;SDS011;22846;42.654;23.314;2022-08-01T01:37:54;3.25;;;1.85;;
31336;SDS011;22846;42.654;23.314;2022-08-01T01:40:25;1.80;;;1.70;;
31336;SDS011;22846;42.654;23.314;2022-08-01T01:42:51;3.83;;;1.73;;
31336;SDS011;22846;42.654;23.314;2022-08-01T01:45:20;4.45;;;1.75;;
31336;SDS011;22846;42.654;23.314;2022-08-01T01:47:48;3.75;;;1.50;;
31336;SDS011;22846;42.654;23.314;2022-08-01T01:50:15;4.18;;;1.90;;
31336;SDS011;22846;42.654;23.314;2022-08-01T01:52:40;4.43;;;1.48;;
31336;SDS011;22846;42.654;23.314;2022-08-01T01:55:09;4.25;;;1.50;;
31336;SDS011;22846;42.654;23.314;2022-08-01T01:57:37;5.20;;;1.77;;
31336;SDS011;22846;42.654;23.314;2022-08-01T02:00:05;4.10;;;1.75;;
31336;SDS011;22846;42.654;23.314;2022-08-01T02:02:33;3.33;;;1.48;;
31336;SDS011;22846;42.654;23.314;2022-08-01T02:05:01;2.53;;;1.80;;
31336;SDS011;22846;42.654;23.314;2022-08-01T02:07:27;3.05;;;1.50;;
31336;SDS011;22846;42.654;23.314;2022-08-01T02:09:53;2.42;;;1.60;;
31336;SDS011;22846;42.654;23.314;2022-08-01T02:12:20;5.07;;;1.60;;
31336;SDS011;22846;42.654;23.314;2022-08-01T02:14:46;4.32;;;1.75;;
31336;SDS011;22846;42.654;23.314;2022-08-01T02:17:15;1.60;;;1.50;;
31336;SDS011;22846;42.654;23.314;2022-08-01T02:19:43;2.72;;;1.42;;
31336;SDS011;22846;42.654;23.314;2022-08-01T02:22:10;1.95;;;1.65;;
31336;SDS011;22846;42.654;23.314;2022-08-01T02:24:50;3.38;;;1.50;;
31336;SDS011;22846;42.654;23.314;2022-08-01T02:27:31;1.60;;;1.48;;
31336;SDS011;22846;42.654;23.314;2022-08-01T02:30:05;3.13;;;1.67;;
31336;SDS011;22846;42.654;23.314;2022-08-01T02:32:38;4.32;;;1.83;;
31336;SDS011;22846;42.654;23.314;2022-08-01T02:35:09;5.00;;;1.63;;
31336;SDS011;22846;42.654;23.314;2022-08-01T02:37:38;3.85;;;1.50;;
31336;SDS011;22846;42.654;23.314;2022-08-01T02:40:04;4.22;;;1.70;;
31336;SDS011;22846;42.654;23.314;2022-08-01T02:42:33;2.13;;;1.50;;
31336;SDS011;22846;42.654;23.314;2022-08-01T02:45:01;2.00;;;1.33;;
31336;SDS011;22846;42.654;23.314;2022-08-01T02:47:29;2.72;;;1.75;;
31336;SDS011;22846;42.654;23.314;2022-08-01T02:49:56;6.38;;;1.50;;
31336;SDS011;22846;42.654;23.314;2022-08-01T02:52:24;3.08;;;1.70;;
31336;SDS011;22846;42.654;23.314;2022-08-01T02:54:51;2.83;;;1.70;;
31336;SDS011;22846;42.654;23.314;2022-08-01T02:57:20;2.08;;;1.35;;
31336;SDS011;22846;42.654;23.314;2022-08-01T02:59:47;4.60;;;1.67;;
31336;SDS011;22846;42.654;23.314;2022-08-01T03:02:14;2.00;;;1.35;;
31336;SDS011;22846;42.654;23.314;2022-08-01T03:04:41;2.17;;;1.33;;
31336;SDS011;22846;42.654;23.314;2022-08-01T03:07:08;2.70;;;1.50;;
31336;SDS011;22846;42.654;23.314;2022-08-01T03:09:37;2.10;;;1.58;;
31336;SDS011;22846;42.654;23.314;2022-08-01T03:12:06;1.75;;;1.48;;
31336;SDS011;22846;42.654;23.314;2022-08-01T03:14:37;1.70;;;1.60;;
31336;SDS011;22846;42.654;23.314;2022-08-01T03:17:04;2.28;;;1.60;;
31336;SDS011;22846;42.654;23.314;2022-08-01T03:19:32;2.10;;;1.60;;
31336;SDS011;22846;42.654;23.314;2022-08-01T03:21:59;3.47;;;1.85;;
31336;SDS011;22846;42.654;23.314;2022-08-01T03:24:28;4.18;;;1.48;;
31336;SDS011;22846;42.654;23.314;2022-08-01T03:26:54;2.35;;;1.75;;
31336;SDS011;22846;42.654;23.314;2022-08-01T03:29:23;3.92;;;1.80;;
31336;SDS011;22846;42.654;23.314;2022-08-01T03:31:52;4.35;;;1.77;;
31336;SDS011;22846;42.654;23.314;2022-08-01T03:34:18;2.55;;;1.67;;
31336;SDS011;22846;42.654;23.314;2022-08-01T03:36:50;5.97;;;1.75;;
31336;SDS011;22846;42.654;23.314;2022-08-01T03:39:47;3.47;;;1.60;;
31336;SDS011;22846;42.654;23.314;2022-08-01T03:42:20;3.70;;;1.75;;
31336;SDS011;22846;42.654;23.314;2022-08-01T03:44:52;3.60;;;1.95;;
31336;SDS011;22846;42.654;23.314;2022-08-01T03:47:21;2.88;;;1.70;;
31336;SDS011;22846;42.654;23.314;2022-08-01T03:49:50;3.83;;;1.88;;
31336;SDS011;22846;42.654;23.314;2022-08-01T03:52:17;2.22;;;1.95;;
31336;SDS011;22846;42.654;23.314;2022-08-01T03:54:46;3.97;;;1.88;;
31336;SDS011;22846;42.654;23.314;2022-08-01T03:57:13;3.83;;;2.03;;
31336;SDS011;22846;42.654;23.314;2022-08-01T03:59:40;3.17;;;2.03;;
31336;SDS011;22846;42.654;23.314;2022-08-01T04:02:06;4.43;;;1.80;;
31336;SDS011;22846;42.654;23.314;2022-08-01T04:04:33;4.95;;;2.35;;
31336;SDS011;22846;42.654;23.314;2022-08-01T04:06:58;3.97;;;2.03;;
31336;SDS011;22846;42.654;23.314;2022-08-01T04:09:29;5.05;;;1.92;;
31336;SDS011;22846;42.654;23.314;2022-08-01T04:11:56;4.93;;;2.30;;
31336;SDS011;22846;42.654;23.314;2022-08-01T04:14:22;7.57;;;1.90;;
31336;SDS011;22846;42.654;23.314;2022-08-01T04:16:48;3.83;;;2.03;;
31336;SDS011;22846;42.654;23.314;2022-08-01T04:19:14;4.20;;;1.98;;
31336;SDS011;22846;42.654;23.314;2022-08-01T04:21:39;6.45;;;2.30;;
31336;SDS011;22846;42.654;23.314;2022-08-01T04:24:07;6.28;;;2.55;;
31336;SDS011;22846;42.654;23.314;2022-08-01T04:26:38;5.10;;;2.40;;
31336;SDS011;22846;42.654;23.314;2022-08-01T04:29:06;4.65;;;2.40;;
31336;SDS011;22846;42.654;23.314;2022-08-01T04:31:34;5.47;;;2.15;;
31336;SDS011;22846;42.654;23.314;2022-08-01T04:34:02;6.70;;;2.35;;
31336;SDS011;22846;42.654;23.314;2022-08-01T04:36:30;5.00;;;2.45;;
31336;SDS011;22846;42.654;23.314;2022-08-01T04:38:59;4.47;;;2.40;;
31336;SDS011;22846;42.654;23.314;2022-08-01T04:41:26;4.07;;;2.58;;
31336;SDS011;22846;42.654;23.314;2022-08-01T04:43:54;6.70;;;2.42;;
31336;SDS011;22846;42.654;23.314;2022-08-01T04:46:24;7.00;;;2.80;;
31336;SDS011;22846;42.654;23.314;2022-08-01T04:48:50;5.90;;;3.00;;
31336;SDS011;22846;42.654;23.314;2022-08-01T04:51:16;4.93;;;2.72;;
31336;SDS011;22846;42.654;23.314;2022-08-01T04:53:43;7.93;;;2.58;;
31336;SDS011;22846;42.654;23.314;2022-08-01T04:56:10;4.45;;;2.42;;
31336;SDS011;22846;42.654;23.314;2022-08-01T04:58:38;5.75;;;2.90;;
31336;SDS011;22846;42.654;23.314;2022-08-01T05:01:04;4.55;;;2.63;;
31336;SDS011;22846;42.654;23.314;2022-08-01T05:03:30;5.57;;;2.75;;
31336;SDS011;22846;42.654;23.314;2022-08-01T05:05:55;7.90;;;2.97;;
31336;SDS011;22846;42.654;23.314;2022-08-01T05:08:21;6.13;;;2.72;;
31336;SDS011;22846;42.654;23.314;2022-08-01T05:10:46;7.45;;;2.67;;
31336;SDS011;22846;42.654;23.314;2022-08-01T05:13:12;10.52;;;4.18;;
31336;SDS011;22846;42.654;23.314;2022-08-01T05:15:37;13.45;;;4.60;;
31336;SDS011;22846;42.654;23.314;2022-08-01T05:18:03;12.25;;;3.72;;
31336;SDS011;22846;42.654;23.314;2022-08-01T05:20:28;6.18;;;3.40;;
31336;SDS011;22846;42.654;23.314;2022-08-01T05:22:54;9.88;;;3.33;;
31336;SDS011;22846;42.654;23.314;2022-08-01T05:25:19;9.02;;;3.55;;
31336;SDS011;22846;42.654;23.314;2022-08-01T05:27:45;15.55;;;3.67;;
31336;SDS011;22846;42.654;23.314;2022-08-01T05:30:10;9.45;;;3.17;;
31336;SDS011;22846;42.654;23.314;2022-08-01T05:32:36;13.07;;;4.22;;
31336;SDS011;22846;42.654;23.314;2022-08-01T05:35:02;10.85;;;3.22;;
31336;SDS011;22846;42.654;23.314;2022-08-01T05:37:27;6.40;;;3.13;;
31336;SDS011;22846;42.654;23.314;2022-08-01T05:39:53;8.95;;;3.15;;
31336;SDS011;22846;42.654;23.314;2022-08-01T05:42:18;18.02;;;3.33;;
31336;SDS011;22846;42.654;23.314;2022-08-01T05:44:44;8.35;;;3.40;;
31336;SDS011;22846;42.654;23.314;2022-08-01T05:47:09;18.00;;;3.85;;
31336;SDS011;22846;42.654;23.314;2022-08-01T05:49:34;10.23;;;3.00;;
31336;SDS011;22846;42.654;23.314;2022-08-01T05:52:00;15.38;;;3.28;;
31336;SDS011;22846;42.654;23.314;2022-08-01T05:54:26;10.20;;;2.90;;
31336;SDS011;22846;42.654;23.314;2022-08-01T05:56:52;7.57;;;3.22;;
31336;SDS011;22846;42.654;23.314;2022-08-01T05:59:17;10.10;;;3.30;;
31336;SDS011;22846;42.654;23.314;2022-08-01T06:01:43;13.23;;;3.00;;
31336;SDS011;22846;42.654;23.314;2022-08-01T06:04:08;11.77;;;3.40;;
31336;SDS011;22846;42.654;23.314;2022-08-01T06:06:34;12.18;;;3.28;;
31336;SDS011;22846;42.654;23.314;2022-08-01T06:08:59;8.07;;;3.28;;
31336;SDS011;22846;42.654;23.314;2022-08-01T06:11:25;10.60;;;3.30;;
31336;SDS011;22846;42.654;23.314;2022-08-01T06:13:50;4.78;;;2.63;;
31336;SDS011;22846;42.654;23.314;2022-08-01T06:16:16;8.93;;;2.92;;
31336;SDS011;22846;42.654;23.314;2022-08-01T06:18:41;7.50;;;3.20;;
31336;SDS011;22846;42.654;23.314;2022-08-01T06:21:07;7.15;;;3.30;;
31336;SDS011;22846;42.654;23.314;2022-08-01T06:23:32;7.93;;;3.15;;
31336;SDS011;22846;42.654;23.314;2022-08-01T06:25:58;5.20;;;2.90;;
31336;SDS011;22846;42.654;23.314;2022-08-01T06:28:23;4.70;;;2.80;;
31336;SDS011;22846;42.654;23.314;2022-08-01T06:30:49;7.30;;;2.60;;
31336;SDS011;22846;42.654;23.314;2022-08-01T06:33:14;4.72;;;2.65;;
31336;SDS011;22846;42.654;23.314;2022-08-01T06:35:40;8.60;;;2.97;;
31336;SDS011;22846;42.654;23.314;2022-08-01T06:38:05;7.43;;;2.72;;
31336;SDS011;22846;42.654;23.314;2022-08-01T06:40:31;6.95;;;2.72;;
31336;SDS011;22846;42.654;23.314;2022-08-01T06:42:56;5.40;;;2.88;;
31336;SDS011;22846;42.654;23.314;2022-08-01T06:45:22;4.68;;;2.63;;
31336;SDS011;22846;42.654;23.314;2022-08-01T06:47:47;4.18;;;2.60;;
31336;SDS011;22846;42.654;23.314;2022-08-01T06:50:13;4.78;;;2.60;;
31336;SDS011;22846;42.654;23.314;2022-08-01T06:52:39;6.53;;;2.55;;
31336;SDS011;22846;42.654;23.314;2022-08-01T06:55:06;5.95;;;2.60;;
31336;SDS011;22846;42.654;23.314;2022-08-01T06:57:32;6.05;;;2.60;;
31336;SDS011;22846;42.654;23.314;2022-08-01T06:59:57;4.82;;;2.45;;
31336;SDS011;22846;42.654;23.314;2022-08-01T07:02:27;6.53;;;2.88;;
31336;SDS011;22846;42.654;23.314;2022-08-01T07:04:53;5.65;;;2.45;;
31336;SDS011;22846;42.654;23.314;2022-08-01T07:07:18;5.88;;;2.53;;
31336;SDS011;22846;42.654;23.314;2022-08-01T07:09:44;4.78;;;3.00;;
31336;SDS011;22846;42.654;23.314;2022-08-01T07:12:09;4.53;;;2.75;;
31336;SDS011;22846;42.654;23.314;2022-08-01T07:14:36;3.97;;;2.65;;
31336;SDS011;22846;42.654;23.314;2022-08-01T07:17:01;4.00;;;2.50;;
31336;SDS011;22846;42.654;23.314;2022-08-01T07:19:27;4.32;;;2.65;;
31336;SDS011;22846;42.654;23.314;2022-08-01T07:21:52;5.57;;;2.40;;
31336;SDS011;22846;42.654;23.314;2022-08-01T07:24:18;4.05;;;2.42;;
31336;SDS011;22846;42.654;23.314;2022-08-01T07:26:45;4.28;;;2.30;;
31336;SDS011;22846;42.654;23.314;2022-08-01T07:29:12;6.15;;;2.67;;
31336;SDS011;22846;42.654;23.314;2022-08-01T07:31:37;5.63;;;2.47;;
31336;SDS011;22846;42.654;23.314;2022-08-01T07:34:03;5.65;;;2.42;;
31336;SDS011;22846;42.654;23.314;2022-08-01T07:36:28;6.05;;;2.55;;
31336;SDS011;22846;42.654;23.314;2022-08-01T07:38:54;6.18;;;2.40;;
31336;SDS011;22846;42.654;23.314;2022-08-01T07:41:20;5.75;;;2.60;;
31336;SDS011;22846;42.654;23.314;2022-08-01T07:43:46;4.75;;;2.42;;
31336;SDS011;22846;42.654;23.314;2022-08-01T07:46:13;4.22;;;2.20;;
31336;SDS011;22846;42.654;23.314;2022-08-01T07:48:39;5.43;;;2.35;;
31336;SDS011;22846;42.654;23.314;2022-08-01T07:51:04;4.88;;;2.25;;
31336;SDS011;22846;42.654;23.314;2022-08-01T07:53:30;4.28;;;2.28;;
31336;SDS011;22846;42.654;23.314;2022-08-01T07:55:55;4.93;;;2.38;;
31336;SDS011;22846;42.654;23.314;2022-08-01T07:58:21;3.97;;;2.10;;
31336;SDS011;22846;42.654;23.314;2022-08-01T08:00:46;2.92;;;2.28;;
31336;SDS011;22846;42.654;23.314;2022-08-01T08:03:12;3.05;;;2.00;;
31336;SDS011;22846;42.654;23.314;2022-08-01T08:05:37;12.90;;;2.72;;
31336;SDS011;22846;42.654;23.314;2022-08-01T08:08:06;3.17;;;2.22;;
31336;SDS011;22846;42.654;23.314;2022-08-01T08:10:32;2.70;;;2.10;;
31336;SDS011;22846;42.654;23.314;2022-08-01T08:12:58;3.00;;;2.22;;
31336;SDS011;22846;42.654;23.314;2022-08-01T08:15:23;3.00;;;1.92;;
31336;SDS011;22846;42.654;23.314;2022-08-01T08:17:49;2.67;;;2.15;;
31336;SDS011;22846;42.654;23.314;2022-08-01T08:20:15;4.43;;;2.33;;
31336;SDS011;22846;42.654;23.314;2022-08-01T08:22:40;4.30;;;2.20;;
31336;SDS011;22846;42.654;23.314;2022-08-01T08:25:06;3.03;;;1.95;;
31336;SDS011;22846;42.654;23.314;2022-08-01T08:27:32;4.65;;;2.22;;
31336;SDS011;22846;42.654;23.314;2022-08-01T08:29:58;3.03;;;1.90;;
31336;SDS011;22846;42.654;23.314;2022-08-01T08:32:23;2.85;;;2.10;;
31336;SDS011;22846;42.654;23.314;2022-08-01T08:34:49;3.17;;;1.83;;
31336;SDS011;22846;42.654;23.314;2022-08-01T08:37:15;4.43;;;1.70;;
31336;SDS011;22846;42.654;23.314;2022-08-01T08:39:41;3.78;;;2.35;;
31336;SDS011;22846;42.654;23.314;2022-08-01T08:42:08;3.05;;;2.15;;
31336;SDS011;22846;42.654;23.314;2022-08-01T08:44:35;2.45;;;1.83;;
31336;SDS011;22846;42.654;23.314;2022-08-01T08:47:00;2.85;;;2.17;;
31336;SDS011;22846;42.654;23.314;2022-08-01T08:49:30;2.95;;;1.92;;
31336;SDS011;22846;42.654;23.314;2022-08-01T08:51:57;3.08;;;1.80;;
31336;SDS011;22846;42.654;23.314;2022-08-01T08:54:25;2.35;;;1.92;;
31336;SDS011;22846;42.654;23.314;2022-08-01T08:56:52;2.70;;;1.70;;
31336;SDS011;22846;42.654;23.314;2022-08-01T08:59:19;2.20;;;1.80;;
31336;SDS011;22846;42.654;23.314;2022-08-01T09:01:45;2.17;;;1.45;;
31336;SDS011;22846;42.654;23.314;2022-08-01T09:04:12;1.92;;;1.67;;
31336;SDS011;22846;42.654;23.314;2022-08-01T09:06:38;3.47;;;2.00;;
31336;SDS011;22846;42.654;23.314;2022-08-01T09:09:04;2.70;;;1.70;;
31336;SDS011;22846;42.654;23.314;2022-08-01T09:11:30;3.50;;;1.75;;
31336;SDS011;22846;42.654;23.314;2022-08-01T09:16:41;2.67;;;2.00;;
31336;SDS011;22846;42.654;23.314;2022-08-01T09:19:13;2.83;;;1.75;;
31336;SDS011;22846;42.654;23.314;2022-08-01T09:21:40;2.53;;;1.77;;
31336;SDS011;22846;42.654;23.314;2022-08-01T09:24:23;2.25;;;1.80;;
31336;SDS011;22846;42.654;23.314;2022-08-01T09:26:50;1.88;;;1.67;;
31336;SDS011;22846;42.654;23.314;2022-08-01T09:29:20;2.47;;;1.55;;
31336;SDS011;22846;42.654;23.314;2022-08-01T09:34:15;2.15;;;1.88;;
31336;SDS011;22846;42.654;23.314;2022-08-01T09:36:51;1.60;;;1.50;;
31336;SDS011;22846;42.654;23.314;2022-08-01T09:39:25;2.08;;;1.67;;
31336;SDS011;22846;42.654;23.314;2022-08-01T09:41:56;2.45;;;1.63;;
31336;SDS011;22846;42.654;23.314;2022-08-01T09:44:37;1.90;;;1.73;;
31336;SDS011;22846;42.654;23.314;2022-08-01T09:47:03;2.03;;;1.58;;
31336;SDS011;22846;42.654;23.314;2022-08-01T09:49:32;2.63;;;1.65;;
31336;SDS011;22846;42.654;23.314;2022-08-01T09:52:00;1.90;;;1.45;;
31336;SDS011;22846;42.654;23.314;2022-08-01T09:54:36;2.42;;;1.70;;
31336;SDS011;22846;42.654;23.314;2022-08-01T09:57:17;2.67;;;1.77;;
31336;SDS011;22846;42.654;23.314;2022-08-01T09:59:45;1.73;;;1.50;;
31336;SDS011;22846;42.654;23.314;2022-08-01T10:02:13;1.88;;;1.50;;
31336;SDS011;22846;42.654;23.314;2022-08-01T10:04:47;2.03;;;1.40;;
31336;SDS011;22846;42.654;23.314;2022-08-01T10:07:14;1.95;;;1.70;;
31336;SDS011;22846;42.654;23.314;2022-08-01T10:09:41;1.40;;;1.30;;
31336;SDS011;22846;42.654;23.314;2022-08-01T10:12:07;1.95;;;1.50;;
31336;SDS011;22846;42.654;23.314;2022-08-01T10:14:34;1.73;;;1.25;;
31336;SDS011;22846;42.654;23.314;2022-08-01T10:17:01;1.92;;;1.33;;
31336;SDS011;22846;42.654;23.314;2022-08-01T10:19:27;2.08;;;1.52;;
31336;SDS011;22846;42.654;23.314;2022-08-01T10:21:55;1.63;;;1.50;;
31336;SDS011;22846;42.654;23.314;2022-08-01T10:24:21;2.08;;;1.50;;
31336;SDS011;22846;42.654;23.314;2022-08-01T10:26:48;2.42;;;1.58;;
31336;SDS011;22846;42.654;23.314;2022-08-01T10:29:17;3.50;;;1.65;;
31336;SDS011;22846;42.654;23.314;2022-08-01T10:31:46;1.85;;;1.50;;
31336;SDS011;22846;42.654;23.314;2022-08-01T10:34:13;2.13;;;1.60;;
31336;SDS011;22846;42.654;23.314;2022-08-01T10:36:46;2.85;;;1.40;;
31336;SDS011;22846;42.654;23.314;2022-08-01T10:39:13;1.95;;;1.60;;
31336;SDS011;22846;42.654;23.314;2022-08-01T10:41:39;2.15;;;1.67;;
31336;SDS011;22846;42.654;23.314;2022-08-01T10:44:08;1.70;;;1.45;;
31336;SDS011;22846;42.654;23.314;2022-08-01T10:46:35;2.13;;;1.50;;
31336;SDS011;22846;42.654;23.314;2022-08-01T10:49:07;2.25;;;1.50;;
31336;SDS011;22846;42.654;23.314;2022-08-01T10:51:37;1.60;;;1.30;;
31336;SDS011;22846;42.654;23.314;2022-08-01T10:54:07;2.22;;;1.60;;
31336;SDS011;22846;42.654;23.314;2022-08-01T10:56:44;1.50;;;1.40;;
31336;SDS011;22846;42.654;23.314;2022-08-01T10:59:09;1.40;;;1.30;;
31336;SDS011;22846;42.654;23.314;2022-08-01T11:01:38;2.55;;;1.60;;
31336;SDS011;22846;42.654;23.314;2022-08-01T11:04:06;1.60;;;1.30;;
31336;SDS011;22846;42.654;23.314;2022-08-01T11:09:00;1.25;;;1.15;;
31336;SDS011;22846;42.654;23.314;2022-08-01T11:11:26;1.70;;;1.50;;
31336;SDS011;22846;42.654;23.314;2022-08-01T11:14:05;2.67;;;1.75;;
31336;SDS011;22846;42.654;23.314;2022-08-01T11:16:37;1.70;;;1.30;;
31336;SDS011;22846;42.654;23.314;2022-08-01T11:19:04;1.25;;;1.10;;
31336;SDS011;22846;42.654;23.314;2022-08-01T11:30:21;1.30;;;1.20;;
31336;SDS011;22846;42.654;23.314;2022-08-01T11:35:21;1.50;;;1.30;;
31336;SDS011;22846;42.654;23.314;2022-08-01T11:37:51;1.50;;;1.30;;
31336;SDS011;22846;42.654;23.314;2022-08-01T11:42:46;1.50;;;1.38;;
31336;SDS011;22846;42.654;23.314;2022-08-01T11:45:13;1.40;;;1.20;;
31336;SDS011;22846;42.654;23.314;2022-08-01T11:47:43;1.30;;;1.20;;
31336;SDS011;22846;42.654;23.314;2022-08-01T11:53:00;2.30;;;1.40;;
31336;SDS011;22846;42.654;23.314;2022-08-01T11:55:28;1.30;;;1.20;;
31336;SDS011;22846;42.654;23.314;2022-08-01T11:58:01;1.35;;;1.20;;
31336;SDS011;22846;42.654;23.314;2022-08-01T12:00:31;1.60;;;1.17;;
31336;SDS011;22846;42.654;23.314;2022-08-01T12:05:23;1.42;;;1.33;;
31336;SDS011;22846;42.654;23.314;2022-08-01T12:07:49;1.55;;;1.45;;
31336;SDS011;22846;42.654;23.314;2022-08-01T12:10:17;1.33;;;1.17;;
31336;SDS011;22846;42.654;23.314;2022-08-01T12:12:47;1.42;;;1.23;;
31336;SDS011;22846;42.654;23.314;2022-08-01T12:15:13;1.48;;;1.38;;
31336;SDS011;22846;42.654;23.314;2022-08-01T12:17:46;1.73;;;1.20;;
31336;SDS011;22846;42.654;23.314;2022-08-01T12:20:13;1.63;;;1.30;;
31336;SDS011;22846;42.654;23.314;2022-08-01T12:22:41;1.35;;;1.23;;
31336;SDS011;22846;42.654;23.314;2022-08-01T12:25:09;1.30;;;1.20;;
31336;SDS011;22846;42.654;23.314;2022-08-01T12:27:38;1.25;;;0.93;;
31336;SDS011;22846;42.654;23.314;2022-08-01T12:30:05;1.27;;;1.10;;
31336;SDS011;22846;42.654;23.314;2022-08-01T12:32:37;1.38;;;1.17;;
31336;SDS011;22846;42.654;23.314;2022-08-01T12:35:07;1.42;;;1.15;;
31336;SDS011;22846;42.654;23.314;2022-08-01T12:37:56;1.33;;;1.23;;
31336;SDS011;22846;42.654;23.314;2022-08-01T12:40:25;1.23;;;1.13;;
31336;SDS011;22846;42.654;23.314;2022-08-01T12:42:53;10.85;;;1.48;;
31336;SDS011;22846;42.654;23.314;2022-08-01T12:45:23;4.70;;;1.90;;
31336;SDS011;22846;42.654;23.314;2022-08-01T12:47:51;5.13;;;2.00;;
31336;SDS011;22846;42.654;23.314;2022-08-01T12:50:18;3.88;;;2.50;;
31336;SDS011;22846;42.654;23.314;2022-08-01T12:52:46;2.40;;;2.20;;
31336;SDS011;22846;42.654;23.314;2022-08-01T12:55:16;4.88;;;2.42;;
31336;SDS011;22846;42.654;23.314;2022-08-01T12:57:44;2.92;;;2.35;;
31336;SDS011;22846;42.654;23.314;2022-08-01T13:00:22;6.63;;;2.58;;
31336;SDS011;22846;42.654;23.314;2022-08-01T13:02:49;8.32;;;3.00;;
31336;SDS011;22846;42.654;23.314;2022-08-01T13:05:26;4.10;;;2.25;;
31336;SDS011;22846;42.654;23.314;2022-08-01T13:07:52;2.35;;;2.15;;
31336;SDS011;22846;42.654;23.314;2022-08-01T13:10:27;4.60;;;2.70;;
31336;SDS011;22846;42.654;23.314;2022-08-01T13:12:58;3.90;;;2.60;;
31336;SDS011;22846;42.654;23.314;2022-08-01T13:15:29;3.20;;;2.28;;
31336;SDS011;22846;42.654;23.314;2022-08-01T13:18:00;6.85;;;3.30;;
31336;SDS011;22846;42.654;23.314;2022-08-01T13:20:45;6.75;;;2.90;;
31336;SDS011;22846;42.654;23.314;2022-08-01T13:23:15;5.85;;;3.08;;
31336;SDS011;22846;42.654;23.314;2022-08-01T13:25:52;6.40;;;3.05;;
31336;SDS011;22846;42.654;23.314;2022-08-01T13:28:23;3.80;;;2.60;;
31336;SDS011;22846;42.654;23.314;2022-08-01T13:30:56;7.70;;;3.00;;
31336;SDS011;22846;42.654;23.314;2022-08-01T13:36:08;6.25;;;2.92;;
31336;SDS011;22846;42.654;23.314;2022-08-01T13:38:34;3.83;;;2.70;;
31336;SDS011;22846;42.654;23.314;2022-08-01T13:41:18;4.75;;;2.63;;
31336;SDS011;22846;42.654;23.314;2022-08-01T13:43:44;4.18;;;2.60;;
31336;SDS011;22846;42.654;23.314;2022-08-01T13:46:09;4.18;;;2.40;;
31336;SDS011;22846;42.654;23.314;2022-08-01T13:48:35;7.63;;;2.88;;
31336;SDS011;22846;42.654;23.314;2022-08-01T13:51:00;5.43;;;2.63;;
31336;SDS011;22846;42.654;23.314;2022-08-01T13:53:26;4.40;;;2.38;;
31336;SDS011;22846;42.654;23.314;2022-08-01T13:55:52;8.88;;;2.80;;
31336;SDS011;22846;42.654;23.314;2022-08-01T13:58:18;16.30;;;3.97;;
31336;SDS011;22846;42.654;23.314;2022-08-01T14:00:43;5.00;;;2.58;;
31336;SDS011;22846;42.654;23.314;2022-08-01T14:03:10;5.15;;;2.75;;
31336;SDS011;22846;42.654;23.314;2022-08-01T14:05:36;5.05;;;2.35;;
31336;SDS011;22846;42.654;23.314;2022-08-01T14:08:02;7.30;;;2.70;;
31336;SDS011;22846;42.654;23.314;2022-08-01T14:10:28;6.57;;;2.35;;
31336;SDS011;22846;42.654;23.314;2022-08-01T14:12:54;5.57;;;2.88;;
31336;SDS011;22846;42.654;23.314;2022-08-01T14:15:21;6.10;;;3.20;;
31336;SDS011;22846;42.654;23.314;2022-08-01T14:17:46;6.15;;;2.70;;
31336;SDS011;22846;42.654;23.314;2022-08-01T14:20:12;5.82;;;2.83;;
31336;SDS011;22846;42.654;23.314;2022-08-01T14:22:37;5.03;;;2.40;;
31336;SDS011;22846;42.654;23.314;2022-08-01T14:25:04;2.20;;;2.00;;
31336;SDS011;22846;42.654;23.314;2022-08-01T14:27:30;7.00;;;2.65;;
31336;SDS011;22846;42.654;23.314;2022-08-01T14:29:56;4.05;;;2.58;;
31336;SDS011;22846;42.654;23.314;2022-08-01T14:32:22;2.67;;;2.40;;
31336;SDS011;22846;42.654;23.314;2022-08-01T14:34:47;3.67;;;2.42;;
31336;SDS011;22846;42.654;23.314;2022-08-01T14:37:13;3.65;;;2.20;;
31336;SDS011;22846;42.654;23.314;2022-08-01T14:39:38;3.20;;;2.30;;
31336;SDS011;22846;42.654;23.314;2022-08-01T14:42:03;3.35;;;2.33;;
31336;SDS011;22846;42.654;23.314;2022-08-01T14:44:29;10.27;;;2.47;;
31336;SDS011;22846;42.654;23.314;2022-08-01T14:46:54;5.22;;;2.15;;
31336;SDS011;22846;42.654;23.314;2022-08-01T14:49:20;3.00;;;2.35;;
31336;SDS011;22846;42.654;23.314;2022-08-01T14:51:46;2.75;;;2.50;;
31336;SDS011;22846;42.654;23.314;2022-08-01T14:54:11;3.00;;;2.20;;
31336;SDS011;22846;42.654;23.314;2022-08-01T14:56:37;2.88;;;2.30;;
31336;SDS011;22846;42.654;23.314;2022-08-01T14:59:02;3.28;;;2.33;;
31336;SDS011;22846;42.654;23.314;2022-08-01T15:01:27;2.58;;;2.30;;
31336;SDS011;22846;42.654;23.314;2022-08-01T15:03:53;3.00;;;2.70;;
31336;SDS011;22846;42.654;23.314;2022-08-01T15:06:18;4.90;;;2.00;;
31336;SDS011;22846;42.654;23.314;2022-08-01T15:08:44;3.33;;;2.25;;